Weather History for KLVN - April, 2013

Change the Weather History Date:

Monday, April 22, 2013

  Actual Average Record
Temperature  
Mean Temperature 34 °F -  
Max Temperature 39 °F 60 °F 89 °F (1980)
Min Temperature 30 °F 38 °F 23 °F (2008)
Degree Days  
Heating Degree Days 30    
Moisture  
Dew Point 32 °F    
Average Humidity 92    
Maximum Humidity 100    
Minimum Humidity 75    
Precipitation  
Precipitation 0.00 in - - ()
Sea Level Pressure  
Sea Level Pressure 30.14 in    
Wind  
Wind Speed 8 mph (North)    
Max Wind Speed 15 mph    
Max Gust Speed 18 mph    
Visibility 5 miles    
Events Rain , Snow    
Averages and records for this station are not official NWS values.
T = Trace of Precipitation, MM = Missing Value Source: NWS Daily Summary

Daily Weather History Graph

Daily Weather History Graph

Search for Another Location

Airport or City:

Trip Planner

Search our weather history database for the weather conditions in past years. The results will help you decide how hot, cold, wet, or windy it might be!

Date:

Astronomy

Apr. 22, 2013 Rise Set
Actual Time 6:16 AM CDT 8:06 PM CDT
Civil Twilight 5:45 AM CDT 8:38 PM CDT
Nautical Twilight 5:07 AM CDT 9:16 PM CDT
Astronomical Twilight 4:26 AM CDT 9:57 PM CDT
Moon 4:49 PM CDT (4/22) 4:19 AM CDT (4/22)
Length of Visible Light 14h 52m
Length of Day
13h 50m
Waxing Gibbous, 88% of the Moon is Illuminated
Apr 22
Waxing Gibbous
Apr 25
Full
May 2
Last Quarter
May 9
New
May 17
First Quarter

Hourly Weather History & Observations

Time (CDT) Temp. Windchill Dew Point Humidity Pressure Visibility Wind Dir Wind Speed Gust Speed Precip Events Conditions
12:02 AM 39.2 °F 35.9 °F 37.4 °F 93% 30.14 in 7.0 mi WSW 4.6 mph - N/A   Overcast
12:23 AM 39.2 °F 35.9 °F 37.4 °F 93% 30.15 in 7.0 mi West 4.6 mph - N/A   Overcast
12:42 AM 37.4 °F 32.8 °F 35.6 °F 93% 30.15 in 7.0 mi West 5.8 mph - N/A   Overcast
1:02 AM 37.4 °F 30.8 °F 35.6 °F 93% 30.15 in 7.0 mi WNW 9.2 mph - N/A   Overcast
1:23 AM 37.4 °F 31.4 °F 35.6 °F 93% 30.15 in 7.0 mi NW 8.1 mph - N/A   Overcast
1:42 AM 37.4 °F 31.4 °F 35.6 °F 93% 30.14 in 7.0 mi WNW 8.1 mph - N/A   Overcast
2:02 AM 37.4 °F 33.8 °F 35.6 °F 93% 30.15 in 4.0 mi WNW 4.6 mph - N/A   Overcast
2:22 AM 37.4 °F 32.8 °F 35.6 °F 93% 30.15 in 5.0 mi NW 5.8 mph - N/A   Overcast
2:42 AM 35.6 °F 30.7 °F 35.6 °F 100% 30.15 in 4.0 mi WNW 5.8 mph - N/A   Overcast
3:03 AM 35.6 °F 29.2 °F 35.6 °F 100% 30.16 in 3.0 mi WNW 8.1 mph - N/A   Overcast
3:22 AM 35.6 °F 28.6 °F 35.6 °F 100% 30.15 in 3.0 mi NW 9.2 mph - N/A   Overcast
3:42 AM 35.6 °F 29.2 °F 35.6 °F 100% 30.16 in 3.0 mi NW 8.1 mph - N/A   Overcast
4:02 AM 35.6 °F 29.9 °F 33.8 °F 93% 30.16 in 4.0 mi NW 6.9 mph - N/A   Overcast
4:22 AM 35.6 °F 29.9 °F 33.8 °F 93% 30.15 in 4.0 mi North 6.9 mph - N/A   Overcast
4:43 AM 35.6 °F 28.6 °F 33.8 °F 93% 30.16 in 4.0 mi NNW 9.2 mph - N/A   Overcast
5:02 AM 35.6 °F 29.2 °F 33.8 °F 93% 30.17 in 5.0 mi NNW 8.1 mph - N/A   Overcast
5:22 AM 35.6 °F 31.7 °F 33.8 °F 93% 30.17 in 5.0 mi NNW 4.6 mph - N/A   Overcast
5:42 AM 35.6 °F 31.7 °F 33.8 °F 93% 30.18 in 5.0 mi NNW 4.6 mph - N/A   Overcast
6:02 AM 33.8 °F 27.7 °F 33.8 °F 100% 30.18 in 7.0 mi North 6.9 mph - N/A   Overcast
6:23 AM 33.8 °F 26.4 °F 33.8 °F 100% 30.18 in 7.0 mi North 9.2 mph - N/A   Overcast
6:42 AM 35.6 °F 29.2 °F 33.8 °F 93% 30.18 in 7.0 mi North 8.1 mph - N/A   Overcast
7:02 AM 35.6 °F 29.9 °F 33.8 °F 93% 30.18 in 7.0 mi North 6.9 mph - N/A   Overcast
7:23 AM 35.6 °F 28.0 °F 33.8 °F 93% 30.19 in 10.0 mi NNE 10.4 mph - N/A   Overcast
7:42 AM 35.6 °F 28.6 °F 32.0 °F 87% 30.19 in 10.0 mi NE 9.2 mph - N/A   Overcast
8:02 AM 35.6 °F 27.5 °F 30.2 °F 81% 30.18 in 10.0 mi NNE 11.5 mph - N/A   Overcast
8:22 AM 35.6 °F 27.1 °F 30.2 °F 81% 30.17 in 10.0 mi NNE 12.7 mph 17.3 mph N/A   Overcast
8:42 AM 35.6 °F 28.0 °F 32.0 °F 87% 30.18 in 10.0 mi NE 10.4 mph - N/A   Overcast
9:02 AM 35.6 °F 28.6 °F 32.0 °F 87% 30.17 in 10.0 mi NE 9.2 mph - N/A   Overcast
9:22 AM 35.6 °F 26.2 °F 30.2 °F 81% 30.16 in 10.0 mi NNE 15.0 mph - N/A   Overcast
9:43 AM 37.4 °F 29.8 °F 32.0 °F 81% 30.17 in 10.0 mi ENE 11.5 mph - N/A   Overcast
10:02 AM 37.4 °F 30.8 °F 32.0 °F 81% 30.20 in 10.0 mi NE 9.2 mph - N/A   Overcast
10:22 AM 37.4 °F 30.3 °F 32.0 °F 81% 30.20 in 10.0 mi ENE 10.4 mph - N/A   Overcast
10:42 AM 37.4 °F 30.8 °F 33.8 °F 87% 30.19 in 10.0 mi ENE 9.2 mph - N/A   Overcast
11:02 AM 37.4 °F 29.3 °F 32.0 °F 81% 30.18 in 10.0 mi ENE 12.7 mph - N/A   Overcast
11:23 AM 37.4 °F 31.4 °F 33.8 °F 87% 30.17 in 10.0 mi NE 8.1 mph 17.3 mph N/A   Overcast
11:42 AM 37.4 °F 28.9 °F 32.0 °F 81% 30.17 in 10.0 mi NNE 13.8 mph - N/A   Overcast
12:02 PM 37.4 °F 29.8 °F 32.0 °F 81% 30.15 in 10.0 mi NE 11.5 mph 17.3 mph N/A   Overcast
12:22 PM 39.2 °F 32.5 °F 32.0 °F 75% 30.14 in 10.0 mi NE 10.4 mph - N/A   Overcast
12:42 PM 39.2 °F 31.6 °F 32.0 °F 75% 30.13 in 10.0 mi ENE 12.7 mph 18.4 mph N/A   Overcast
1:02 PM 37.4 °F 30.3 °F 32.0 °F 81% 30.12 in 10.0 mi ENE 10.4 mph - N/A   Overcast
1:22 PM 37.4 °F 32.1 °F 32.0 °F 81% 30.13 in 10.0 mi ENE 6.9 mph 17.3 mph N/A   Drizzle
1:42 PM 37.4 °F 31.4 °F 32.0 °F 81% 30.13 in 5.0 mi ENE 8.1 mph - N/A Rain Light Rain
2:02 PM 37.4 °F 31.4 °F 33.8 °F 87% 30.12 in 4.0 mi NE 8.1 mph - N/A Rain Rain
2:22 PM 37.4 °F 30.8 °F 33.8 °F 87% 30.12 in 7.0 mi NNE 9.2 mph - N/A Rain Light Rain
2:42 PM 37.4 °F 32.1 °F 33.8 °F 87% 30.12 in 4.0 mi North 6.9 mph - N/A Rain Rain
3:02 PM 35.6 °F 27.5 °F 33.8 °F 93% 30.11 in 3.0 mi NNW 11.5 mph - N/A Rain Rain
3:22 PM 33.8 °F 26.4 °F 33.8 °F 100% 30.12 in 2.0 mi NNW 9.2 mph - N/A Rain Rain
3:43 PM 33.8 °F 24.8 °F 32.0 °F 93% 30.11 in 3.0 mi North 12.7 mph - N/A Rain Light Rain
4:02 PM 33.8 °F 25.8 °F 32.0 °F 93% 30.10 in 3.0 mi North 10.4 mph 17.3 mph N/A Snow Light Snow
4:22 PM 32.0 °F 23.0 °F 30.2 °F 93% 30.10 in 2.5 mi North 11.5 mph 16.1 mph N/A Snow Snow
4:42 PM 32.0 °F 24.2 °F 30.2 °F 93% 30.09 in 2.0 mi North 9.2 mph - N/A   Overcast
5:02 PM 32.0 °F 25.6 °F 30.2 °F 93% 30.09 in 1.8 mi North 6.9 mph - N/A Snow Light Snow
5:22 PM 30.2 °F 22.6 °F 30.2 °F 100% 30.09 in 1.2 mi North 8.1 mph - N/A Snow Light Snow
5:42 PM 30.2 °F 22.6 °F 30.2 °F 100% 30.09 in 1.2 mi North 8.1 mph - N/A Snow Light Snow
6:02 PM 30.2 °F 21.9 °F 30.2 °F 100% 30.09 in 1.0 mi North 9.2 mph - N/A Snow Light Snow
6:22 PM 30.2 °F 22.6 °F 30.2 °F 100% 30.09 in 0.8 mi North 8.1 mph - N/A Snow Snow
6:42 PM 30.2 °F 21.3 °F 30.2 °F 100% 30.09 in 0.8 mi North 10.4 mph - N/A Snow Snow
7:02 PM 30.2 °F 21.9 °F 30.2 °F 100% 30.09 in 1.0 mi North 9.2 mph - N/A Snow Light Snow
7:22 PM 30.2 °F 21.9 °F 30.2 °F 100% 30.09 in 0.8 mi North 9.2 mph - N/A Snow Snow
7:43 PM 30.2 °F 21.3 °F 30.2 °F 100% 30.10 in 1.2 mi North 10.4 mph - N/A Snow Light Snow
8:02 PM 30.2 °F 21.9 °F 30.2 °F 100% 30.10 in 1.2 mi North 9.2 mph - N/A Snow Snow
8:22 PM 30.2 °F 20.8 °F 30.2 °F 100% 30.11 in 1.0 mi North 11.5 mph - N/A Snow Snow
8:43 PM 30.2 °F 20.8 °F 30.2 °F 100% 30.11 in 1.0 mi North 11.5 mph - N/A Snow Snow
9:02 PM 30.2 °F 22.6 °F 30.2 °F 100% 30.10 in 1.0 mi North 8.1 mph 16.1 mph N/A Snow Snow
9:22 PM 30.2 °F 20.8 °F 30.2 °F 100% 30.10 in 1.5 mi North 11.5 mph - N/A Snow Light Snow
9:42 PM 30.2 °F 20.2 °F 30.2 °F 100% 30.10 in 1.2 mi North 12.7 mph 16.1 mph N/A Snow Snow
10:02 PM 30.2 °F 21.3 °F 30.2 °F 100% 30.11 in 2.0 mi North 10.4 mph 16.1 mph N/A Snow Light Snow
10:23 PM 30.2 °F 21.9 °F 30.2 °F 100% 30.11 in 1.8 mi North 9.2 mph - N/A   Overcast
10:42 PM 30.2 °F 21.9 °F 30.2 °F 100% 30.12 in 1.0 mi NNW 9.2 mph - N/A Snow Snow
11:02 PM 30.2 °F 21.9 °F 30.2 °F 100% 30.12 in 1.0 mi NNW 9.2 mph - N/A Snow Snow
11:22 PM 30.2 °F 21.9 °F 30.2 °F 100% 30.12 in 1.0 mi NNW 9.2 mph - N/A Snow Snow
11:42 PM 30.2 °F 21.3 °F 30.2 °F 100% 30.11 in 2.5 mi NNW 10.4 mph - N/A Snow Light Snow